createdAt,value
2018-08-07T00:00:17.640Z,94864.02
2018-08-07T00:02:47.911Z,94862.30
2018-08-07T00:05:17.267Z,94856.13
2018-08-07T00:07:47.174Z,94855.36
2018-08-07T00:10:18.488Z,94849.45
2018-08-07T00:12:47.915Z,94859.38
2018-08-07T00:15:17.201Z,94851.33
2018-08-07T00:17:46.415Z,94850.02
2018-08-07T00:20:16.729Z,94842.30
2018-08-07T00:22:46.371Z,94843.45
2018-08-07T00:25:15.663Z,94841.95
2018-08-07T00:27:44.976Z,94842.72
2018-08-07T00:30:15.346Z,94837.33
2018-08-07T00:32:44.631Z,94842.23
2018-08-07T00:35:14.913Z,94842.52
2018-08-07T00:37:44.308Z,94842.81
2018-08-07T00:40:15.525Z,94837.16
2018-08-07T00:42:45.321Z,94835.25
2018-08-07T00:45:17.484Z,94832.55
2018-08-07T00:47:46.706Z,94818.79
2018-08-07T00:50:17.303Z,94823.16
2018-08-07T00:52:47.245Z,94824.47
2018-08-07T00:55:17.035Z,94817.03
2018-08-07T00:57:46.433Z,94820.02
2018-08-07T01:00:16.107Z,94822.70
2018-08-07T01:02:45.223Z,94811.63
2018-08-07T01:05:15.771Z,94813.58
2018-08-07T01:07:44.931Z,94814.49
2018-08-07T01:10:15.788Z,94815.55
2018-08-07T01:12:44.932Z,94817.20
2018-08-07T01:15:16.107Z,94811.41
2018-08-07T01:17:46.724Z,94807.67
2018-08-07T01:20:17.030Z,94806.11
2018-08-07T01:22:46.436Z,94805.98
2018-08-07T01:25:18.634Z,94805.89
2018-08-07T01:27:47.836Z,94801.79
2018-08-07T01:30:19.552Z,94805.63
2018-08-07T01:32:48.717Z,94798.52
2018-08-07T01:35:17.860Z,94796.30
2018-08-07T01:37:48.075Z,94793.90
2018-08-07T01:40:19.352Z,94793.77
2018-08-07T01:42:48.624Z,94790.28
2018-08-07T01:45:17.840Z,94790.44
2018-08-07T01:47:47.066Z,94792.17
2018-08-07T01:50:16.518Z,94800.63
2018-08-07T01:52:45.667Z,94789.83
2018-08-07T01:55:23.587Z,94793.25
2018-08-07T01:57:53.132Z,94786.70
2018-08-07T02:00:22.429Z,94784.31
2018-08-07T02:02:51.915Z,94784.19
2018-08-07T02:05:21.285Z,94786.79
2018-08-07T02:07:50.660Z,94783.44
2018-08-07T02:10:20.293Z,94782.59
2018-08-07T02:12:49.563Z,94785.84
2018-08-07T02:15:18.702Z,94778.36
2018-08-07T02:20:16.884Z,94777.80
2018-08-07T02:22:46.602Z,94783.71
2018-08-07T02:25:17.765Z,94776.91
2018-08-07T02:27:47.443Z,94772.05
2018-08-07T02:30:17.165Z,94771.67
2018-08-07T02:32:46.299Z,94775.59
2018-08-07T02:35:16.385Z,94771.30
2018-08-07T02:37:46.344Z,94771.35
2018-08-07T02:40:15.843Z,94768.10
2018-08-07T02:42:45.065Z,94771.50
2018-08-07T02:45:15.991Z,94774.47
2018-08-07T02:47:45.522Z,94760.55
2018-08-07T02:50:16.363Z,94762.03
2018-08-07T02:52:45.652Z,94763.69
2018-08-07T02:55:14.901Z,94760.70
2018-08-07T02:57:44.713Z,94758.59
2018-08-07T03:00:34.300Z,94760.41
2018-08-07T03:03:03.424Z,94762.20
2018-08-07T03:05:32.607Z,94756.16
2018-08-07T03:08:01.735Z,94751.92
2018-08-07T03:10:30.925Z,94750.67
2018-08-07T03:13:00.016Z,94755.40
2018-08-07T03:15:29.203Z,94750.01
2018-08-07T03:17:58.331Z,94758.42
2018-08-07T03:20:27.472Z,94756.44
2018-08-07T03:22:56.600Z,94751.53
2018-08-07T03:25:25.743Z,94746.22
2018-08-07T03:27:54.878Z,94752.06
2018-08-07T03:30:24.304Z,94745.90
2018-08-07T03:32:53.453Z,94744.75
2018-08-07T03:35:22.588Z,94748.53
2018-08-07T03:37:51.820Z,94746.62
2018-08-07T03:40:21.089Z,94751.47
2018-08-07T03:42:50.240Z,94753.69
2018-08-07T03:45:20.095Z,94752.99
2018-08-07T03:47:49.514Z,94755.07
2018-08-07T03:50:18.738Z,94758.21
2018-08-07T03:52:47.985Z,94755.84
2018-08-07T03:55:18.380Z,94756.69
2018-08-07T03:57:47.950Z,94759.93
2018-08-07T04:00:18.951Z,94761.68
2018-08-07T04:02:48.262Z,94756.02
2018-08-07T04:05:17.560Z,94764.16
2018-08-07T04:07:46.759Z,94769.91
2018-08-07T04:10:17.424Z,94766.31
2018-08-07T04:12:46.586Z,94762.98
2018-08-07T04:15:16.842Z,94761.65
2018-08-07T04:17:46.149Z,94754.02
2018-08-07T04:20:16.928Z,94758.50
2018-08-07T04:22:47.172Z,94757.66
2018-08-07T04:25:16.476Z,94755.86
2018-08-07T04:27:45.734Z,94756.66
2018-08-07T04:30:17.659Z,94759.93
2018-08-07T04:32:46.987Z,94759.91
2018-08-07T04:35:16.926Z,94761.62
2018-08-07T04:37:46.679Z,94750.98
2018-08-07T04:40:15.939Z,94756.12
2018-08-07T04:42:45.259Z,94760.94
2018-08-07T04:45:16.534Z,94757.28
2018-08-07T04:47:46.292Z,94762.22
2018-08-07T04:50:15.504Z,94762.28
2018-08-07T04:52:44.699Z,94764.59
2018-08-07T04:55:13.903Z,94768.12
2018-08-07T04:57:43.079Z,94764.63
2018-08-07T05:00:14.808Z,94762.91
2018-08-07T05:02:45.081Z,94764.28
2018-08-07T05:05:15.741Z,94773.22
2018-08-07T05:07:44.934Z,94764.68
2018-08-07T05:10:16.757Z,94769.47
2018-08-07T05:12:46.456Z,94770.29
2018-08-07T05:15:15.823Z,94768.55
2018-08-07T05:17:46.141Z,94769.57
2018-08-07T05:20:15.357Z,94772.50
2018-08-07T05:22:44.503Z,94769.73
2018-08-07T05:25:13.949Z,94768.75
2018-08-07T05:27:43.172Z,94767.53
2018-08-07T05:30:14.903Z,94766.64
2018-08-07T05:32:44.214Z,94772.69
2018-08-07T05:35:14.507Z,94767.22
2018-08-07T05:37:43.988Z,94766.86
2018-08-07T05:40:13.321Z,94763.13
2018-08-07T05:42:42.587Z,94768.72
2018-08-07T05:45:13.659Z,94775.09
2018-08-07T05:47:42.928Z,94761.23
2018-08-07T05:50:14.174Z,94766.42
2018-08-07T05:52:43.479Z,94765.80
2018-08-07T05:55:12.853Z,94772.53
2018-08-07T05:57:42.066Z,94763.81
2018-08-07T06:00:13.360Z,94762.04
2018-08-07T06:02:42.583Z,94764.72
2018-08-07T06:05:11.781Z,94764.30
2018-08-07T06:07:40.978Z,94767.38
2018-08-07T06:10:11.687Z,94760.89
2018-08-07T06:12:41.049Z,94765.81
2018-08-07T06:15:12.651Z,94763.27
2018-08-07T06:17:42.601Z,94764.58
2018-08-07T06:20:12.355Z,94761.06
2018-08-07T06:22:41.669Z,94759.97
2018-08-07T06:25:11.959Z,94765.91
2018-08-07T06:27:41.137Z,94768.61
2018-08-07T06:30:16.259Z,94767.84
2018-08-07T06:32:46.071Z,94766.47
2018-08-07T06:35:15.364Z,94763.39
2018-08-07T06:37:44.610Z,94760.67
2018-08-07T06:40:15.014Z,94761.80
2018-08-07T06:42:44.236Z,94763.83
2018-08-07T06:45:14.683Z,94763.91
2018-08-07T06:47:43.857Z,94764.13
2018-08-07T06:50:18.308Z,94756.93
2018-08-07T06:52:48.002Z,94758.78
2018-08-07T06:55:17.420Z,94757.78
2018-08-07T06:57:46.678Z,94760.20
2018-08-07T07:00:19.382Z,94759.66
2018-08-07T07:02:48.605Z,94750.22
2018-08-07T07:05:17.940Z,94757.83
2018-08-07T07:07:47.271Z,94753.35
2018-08-07T07:10:16.432Z,94748.90
2018-08-07T07:12:46.427Z,94755.61
2018-08-07T07:15:16.539Z,94755.11
2018-08-07T07:17:46.749Z,94750.80
2018-08-07T07:20:16.763Z,94755.81
2018-08-07T07:22:46.864Z,94752.50
2018-08-07T07:25:16.140Z,94752.49
2018-08-07T07:27:45.337Z,94751.61
2018-08-07T07:30:17.422Z,94746.20
2018-08-07T07:32:47.647Z,94752.36
2018-08-07T07:35:17.267Z,94754.32
2018-08-07T07:37:46.667Z,94750.86
2018-08-07T07:40:15.824Z,94744.81
2018-08-07T07:42:44.975Z,94748.21
2018-08-07T07:45:15.954Z,94751.16
2018-08-07T07:47:45.157Z,94741.94
2018-08-07T07:50:16.367Z,94746.50
2018-08-07T07:52:45.676Z,94739.91
2018-08-07T07:55:15.650Z,94743.72
2018-08-07T07:57:44.788Z,94734.39
2018-08-07T08:00:20.316Z,94732.59
2018-08-07T08:02:49.602Z,94734.13
2018-08-07T08:05:18.972Z,94737.24
2018-08-07T08:07:48.087Z,94739.95
2018-08-07T08:10:17.344Z,94735.30
2018-08-07T08:12:46.639Z,94734.90
2018-08-07T08:15:17.498Z,94733.87
2018-08-07T08:17:47.639Z,94732.59
2018-08-07T08:20:21.056Z,94730.69
2018-08-07T08:22:50.989Z,94727.85
2018-08-07T08:25:20.267Z,94731.00
2018-08-07T08:27:49.558Z,94733.59
2018-08-07T08:30:18.891Z,94732.53
2018-08-07T08:32:48.264Z,94731.77
2018-08-07T08:35:18.579Z,94728.13
2018-08-07T08:37:48.248Z,94731.19
2018-08-07T08:40:20.391Z,94727.13
2018-08-07T08:42:49.648Z,94726.41
2018-08-07T08:45:20.401Z,94726.59
2018-08-07T08:47:50.977Z,94721.42
2018-08-07T08:50:21.350Z,94725.97
2018-08-07T08:52:50.713Z,94722.16
2018-08-07T08:55:20.015Z,94726.86
2018-08-07T08:57:49.352Z,94724.66
2018-08-07T09:00:21.755Z,94720.31
2018-08-07T09:02:51.071Z,94725.36
2018-08-07T09:05:20.271Z,94712.55
2018-08-07T09:07:49.595Z,94712.86
2018-08-07T09:10:20.970Z,94715.95
2018-08-07T09:12:50.611Z,94713.86
2018-08-07T09:15:19.729Z,94715.53
2018-08-07T09:17:48.967Z,94707.80
2018-08-07T09:20:22.685Z,94711.24
2018-08-07T09:22:51.877Z,94713.88
2018-08-07T09:25:21.808Z,94704.19
2018-08-07T09:27:51.008Z,94704.23
2018-08-07T09:30:22.260Z,94707.13
2018-08-07T09:32:52.105Z,94706.86
2018-08-07T09:35:22.069Z,94705.78
2018-08-07T09:37:51.302Z,94690.17
2018-08-07T09:40:21.420Z,94698.96
2018-08-07T09:42:51.937Z,94696.67
2018-08-07T09:45:24.271Z,94691.20
2018-08-07T09:47:53.542Z,94691.87
2018-08-07T09:50:22.865Z,94695.16
2018-08-07T09:52:52.098Z,94687.16
2018-08-07T09:55:21.434Z,94689.41
2018-08-07T09:57:50.773Z,94681.37
2018-08-07T10:00:26.025Z,94683.66
2018-08-07T10:02:58.848Z,94685.40
2018-08-07T10:05:29.519Z,94688.23
2018-08-07T10:07:58.872Z,94682.28
2018-08-07T10:10:28.182Z,94679.08
2018-08-07T10:12:57.527Z,94681.45
2018-08-07T10:15:26.885Z,94678.99
2018-08-07T10:17:56.235Z,94665.48
2018-08-07T10:20:25.476Z,94662.59
2018-08-07T10:22:54.726Z,94672.00
2018-08-07T10:25:24.094Z,94676.69
2018-08-07T10:27:53.353Z,94667.44
2018-08-07T10:30:23.796Z,94667.85
2018-08-07T10:32:53.459Z,94667.09
2018-08-07T10:35:22.777Z,94661.22
2018-08-07T10:37:53.051Z,94658.53
2018-08-07T10:40:23.965Z,94650.37
2018-08-07T10:42:53.228Z,94659.55
2018-08-07T10:45:23.971Z,94647.28
2018-08-07T10:47:53.297Z,94644.96
2018-08-07T10:50:24.054Z,94632.84
2018-08-07T10:52:53.474Z,94651.45
2018-08-07T10:55:23.478Z,94655.31
2018-08-07T10:57:54.035Z,94640.45
2018-08-07T11:00:25.045Z,94649.55
2018-08-07T11:02:54.920Z,94642.12
2018-08-07T11:05:24.703Z,94639.80
2018-08-07T11:07:54.025Z,94649.55
2018-08-07T11:10:23.534Z,94644.06
2018-08-07T11:12:53.561Z,94646.88
2018-08-07T11:15:30.000Z,94648.96
2018-08-07T11:17:59.633Z,94644.78
2018-08-07T11:20:28.930Z,94634.56
2018-08-07T11:22:59.259Z,94629.11
2018-08-07T11:25:29.329Z,94630.23
2018-08-07T11:27:58.760Z,94630.21
2018-08-07T11:30:29.064Z,94633.78
2018-08-07T11:32:59.367Z,94624.62
2018-08-07T11:35:28.996Z,94621.40
2018-08-07T11:38:00.355Z,94625.57
2018-08-07T11:40:29.550Z,94616.95
2018-08-07T11:42:59.106Z,94622.02
2018-08-07T11:45:29.565Z,94622.11
2018-08-07T11:47:58.769Z,94609.36
2018-08-07T11:50:29.242Z,94618.52
2018-08-07T11:52:58.507Z,94618.86
2018-08-07T11:55:27.697Z,94622.67
2018-08-07T11:57:56.882Z,94615.94
2018-08-07T12:00:29.241Z,94607.95
2018-08-07T12:02:58.414Z,94611.25
2018-08-07T12:05:27.606Z,94605.23
2018-08-07T12:07:56.919Z,94601.34
2018-08-07T12:10:26.107Z,94598.77
2018-08-07T12:12:55.317Z,94599.25
2018-08-07T12:15:25.306Z,94593.78
2018-08-07T12:17:54.878Z,94588.70
2018-08-07T12:20:24.059Z,94585.27
2018-08-07T12:22:53.371Z,94589.22
2018-08-07T12:25:22.729Z,94588.99
2018-08-07T12:27:52.125Z,94583.15
2018-08-07T12:30:23.704Z,94588.38
2018-08-07T12:32:52.963Z,94593.47
2018-08-07T12:35:22.282Z,94584.75
2018-08-07T12:37:51.544Z,94578.75
2018-08-07T12:40:24.838Z,94580.59
2018-08-07T12:42:56.623Z,94585.27
2018-08-07T12:45:25.949Z,94582.53
2018-08-07T12:47:55.365Z,94581.23
2018-08-07T12:50:24.638Z,94586.48
2018-08-07T12:52:53.935Z,94581.36
2018-08-07T12:55:23.815Z,94584.45
2018-08-07T12:57:53.570Z,94579.26
2018-08-07T13:00:25.123Z,94573.97
2018-08-07T13:02:54.446Z,94568.76
2018-08-07T13:05:23.746Z,94554.53
2018-08-07T13:07:53.082Z,94563.09
2018-08-07T13:10:24.612Z,94567.01
2018-08-07T13:12:54.617Z,94562.45
2018-08-07T13:15:23.828Z,94560.94
2018-08-07T13:17:52.995Z,94557.20
2018-08-07T13:20:22.455Z,94554.19
2018-08-07T13:22:51.753Z,94552.47
2018-08-07T13:25:22.254Z,94550.38
2018-08-07T13:30:48.878Z,94553.11
2018-08-07T13:33:17.151Z,94545.38
2018-08-07T13:35:45.474Z,94542.73
2018-08-07T13:38:13.920Z,94541.97
2018-08-07T13:40:42.297Z,94531.08
2018-08-07T13:43:11.042Z,94527.72
2018-08-07T13:45:39.396Z,94528.72
2018-08-07T13:48:07.817Z,94528.42
2018-08-07T13:50:36.111Z,94529.56
2018-08-07T13:53:04.548Z,94533.28
2018-08-07T13:55:32.870Z,94530.05
2018-08-07T13:58:01.151Z,94525.02
2018-08-07T14:00:29.623Z,94522.79
2018-08-07T14:02:58.609Z,94526.67
2018-08-07T14:05:27.574Z,94531.02
2018-08-07T14:07:57.384Z,94524.12
2018-08-07T14:10:26.968Z,94520.34
2018-08-07T14:12:55.611Z,94524.08
2018-08-07T14:15:25.537Z,94525.77
2018-08-07T14:17:53.965Z,94520.35
2018-08-07T14:20:22.842Z,94518.75
2018-08-07T14:22:51.259Z,94507.80
2018-08-07T14:25:20.903Z,94507.91
2018-08-07T14:27:49.367Z,94505.91
2018-08-07T14:30:19.991Z,94501.86
2018-08-07T14:32:48.665Z,94504.58
2018-08-07T14:35:17.195Z,94495.52
2018-08-07T14:37:46.421Z,94493.23
2018-08-07T14:40:17.716Z,94495.47
2018-08-07T14:42:47.449Z,94490.41
2018-08-07T14:45:17.285Z,94487.02
2018-08-07T14:47:45.771Z,94483.72
2018-08-07T14:50:18.848Z,94486.19
2018-08-07T14:52:47.422Z,94490.22
2018-08-07T14:55:15.974Z,94487.05
2018-08-07T14:57:44.427Z,94491.23
2018-08-07T15:00:14.571Z,94492.94
2018-08-07T15:02:43.369Z,94501.61
2018-08-07T15:05:11.775Z,94495.92
2018-08-07T15:07:40.248Z,94495.21
2018-08-07T15:10:10.971Z,94490.89
2018-08-07T15:12:39.419Z,94496.26
2018-08-07T15:15:27.280Z,94496.63
2018-08-07T15:17:55.697Z,94492.63
2018-08-07T15:20:25.665Z,94491.31
2018-08-07T15:22:54.643Z,94497.16
2018-08-07T15:25:23.535Z,94498.86
2018-08-07T15:27:52.011Z,94493.48
2018-08-07T15:30:22.545Z,94484.83
2018-08-07T15:32:51.521Z,94486.22
2018-08-07T15:35:21.320Z,94486.53
2018-08-07T15:37:49.838Z,94487.03
2018-08-07T15:40:18.698Z,94490.92
2018-08-07T15:42:47.390Z,94484.82
2018-08-07T15:45:17.202Z,94494.87
2018-08-07T15:47:45.644Z,94490.28
2018-08-07T15:50:15.600Z,94490.42
2018-08-07T15:52:45.184Z,94488.84
2018-08-07T15:55:15.579Z,94482.58
2018-08-07T15:57:44.138Z,94482.33
2018-08-07T16:00:29.928Z,94483.28
2018-08-07T16:03:00.683Z,94482.42
2018-08-07T16:05:28.952Z,94483.39
2018-08-07T16:07:57.267Z,94488.45
2018-08-07T16:10:25.540Z,94471.63
2018-08-07T16:15:42.971Z,94471.28
2018-08-07T16:18:11.274Z,94465.53
2018-08-07T16:20:39.531Z,94463.57
2018-08-07T16:23:07.809Z,94464.55
2018-08-07T16:25:36.083Z,94480.16
2018-08-07T16:28:04.367Z,94483.19
2018-08-07T16:30:32.677Z,94491.11
2018-08-07T16:33:00.906Z,94490.51
2018-08-07T16:35:29.349Z,94494.36
2018-08-07T16:37:57.635Z,94495.34
2018-08-07T16:40:26.201Z,94490.22
2018-08-07T16:42:54.964Z,94489.39
2018-08-07T16:45:23.983Z,94486.02
2018-08-07T16:47:52.433Z,94493.20
2018-08-07T16:50:23.986Z,94498.50
2018-08-07T16:52:53.504Z,94512.13
2018-08-07T16:55:22.974Z,94501.57
2018-08-07T16:57:51.429Z,94501.84
2018-08-07T17:00:19.819Z,94499.28
2018-08-07T17:02:48.248Z,94505.69
2018-08-07T17:05:17.360Z,94503.34
2018-08-07T17:07:46.089Z,94509.13
2018-08-07T17:10:19.071Z,94511.97
2018-08-07T17:12:47.571Z,94512.71
2018-08-07T17:15:15.974Z,94505.05
2018-08-07T17:17:44.804Z,94497.13
2018-08-07T17:20:14.839Z,94514.27
2018-08-07T17:22:43.724Z,94524.30
2018-08-07T17:25:13.824Z,94531.34
2018-08-07T17:27:42.907Z,94525.19
2018-08-07T17:30:16.054Z,94530.50
2018-08-07T17:32:44.779Z,94541.53
2018-08-07T17:35:15.594Z,94536.61
2018-08-07T17:37:43.999Z,94539.59
2018-08-07T17:40:13.724Z,94544.81
2018-08-07T17:42:42.223Z,94553.17
2018-08-07T17:45:11.687Z,94551.97
2018-08-07T17:47:40.119Z,94552.75
2018-08-07T17:50:10.683Z,94546.08
2018-08-07T17:52:39.238Z,94544.16
2018-08-07T17:55:08.261Z,94553.08
2018-08-07T17:57:36.712Z,94577.17
2018-08-07T18:00:08.329Z,94601.59
2018-08-07T18:02:36.850Z,94602.55
2018-08-07T18:05:05.879Z,94616.48
2018-08-07T18:07:34.294Z,94618.58
2018-08-07T18:10:02.731Z,94617.48
2018-08-07T18:12:31.162Z,94620.63
2018-08-07T18:14:59.539Z,94613.55
2018-08-07T18:17:27.886Z,94611.45
2018-08-07T18:19:56.227Z,94608.35
2018-08-07T18:22:24.572Z,94608.00
2018-08-07T18:24:53.000Z,94609.61
2018-08-07T18:27:21.362Z,94593.06
2018-08-07T18:29:49.995Z,94606.14
2018-08-07T18:32:18.424Z,94605.17
2018-08-07T18:34:46.871Z,94598.29
2018-08-07T18:37:15.250Z,94604.43
2018-08-07T18:39:43.647Z,94594.22
2018-08-07T18:42:12.098Z,94591.25
2018-08-07T18:44:40.504Z,94589.45
2018-08-07T18:47:08.887Z,94591.16
2018-08-07T18:49:37.322Z,94596.48
2018-08-07T18:52:05.795Z,94595.18
2018-08-07T18:54:34.134Z,94599.48
2018-08-07T18:57:02.555Z,94591.34
2018-08-07T18:59:30.845Z,94592.92
2018-08-07T19:01:59.143Z,94591.00
2018-08-07T19:04:27.449Z,94586.16
2018-08-07T19:06:55.859Z,94584.75
2018-08-07T19:09:24.144Z,94574.50
2018-08-07T19:11:52.486Z,94580.64
2018-08-07T19:14:20.781Z,94581.33
2018-08-07T19:16:49.143Z,94587.34
2018-08-07T19:19:17.396Z,94589.73
2018-08-07T19:21:45.839Z,94588.45
2018-08-07T19:24:14.149Z,94584.45
2018-08-07T19:26:42.525Z,94585.05
2018-08-07T19:29:10.804Z,94580.63
2018-08-07T19:31:39.079Z,94577.78
2018-08-07T19:34:07.390Z,94576.09
2018-08-07T19:36:35.644Z,94576.98
2018-08-07T19:39:06.130Z,94585.47
2018-08-07T19:41:34.442Z,94584.85
2018-08-07T19:44:02.887Z,94569.98
2018-08-07T19:46:31.229Z,94561.97
2018-08-07T19:48:59.647Z,94566.19
2018-08-07T19:51:28.279Z,94570.77
2018-08-07T19:53:56.578Z,94559.91
2018-08-07T19:56:24.947Z,94558.95
2018-08-07T19:58:53.361Z,94560.50
2018-08-07T20:01:21.667Z,94551.44
2018-08-07T20:03:50.062Z,94544.66
2018-08-07T20:06:18.403Z,94544.19
2018-08-07T20:08:46.778Z,94533.75
2018-08-07T20:11:15.227Z,94527.39
2018-08-07T20:13:43.821Z,94529.74
2018-08-07T20:16:12.167Z,94518.94
2018-08-07T20:18:40.573Z,94521.20
2018-08-07T20:21:09.324Z,94511.70
2018-08-07T20:23:37.607Z,94524.48
2018-08-07T20:26:06.190Z,94521.25
2018-08-07T20:28:34.634Z,94520.08
2018-08-07T20:31:02.930Z,94516.27
2018-08-07T20:33:31.282Z,94530.38
2018-08-07T20:35:59.543Z,94538.80
2018-08-07T20:38:27.795Z,94544.30
2018-08-07T20:40:56.032Z,94546.91
2018-08-07T20:43:24.348Z,94557.47
2018-08-07T20:45:52.618Z,94551.55
2018-08-07T20:48:20.863Z,94551.36
2018-08-07T20:50:49.174Z,94549.18
2018-08-07T20:53:17.455Z,94550.44
2018-08-07T20:55:45.731Z,94546.93
2018-08-07T20:58:13.987Z,94555.77
2018-08-07T21:00:42.242Z,94553.02
2018-08-07T21:03:10.523Z,94555.39
2018-08-07T21:05:38.778Z,94551.72
2018-08-07T21:08:07.143Z,94547.91
2018-08-07T21:10:35.379Z,94551.19
2018-08-07T21:13:03.690Z,94554.05
2018-08-07T21:15:31.939Z,94551.09
2018-08-07T21:18:00.427Z,94553.00
2018-08-07T21:20:28.823Z,94556.47
2018-08-07T21:22:57.082Z,94560.48
2018-08-07T21:25:25.360Z,94563.34
2018-08-07T21:27:58.154Z,94564.05
2018-08-07T21:30:29.003Z,94557.63
2018-08-07T21:32:57.276Z,94549.16
2018-08-07T21:35:25.536Z,94542.00
2018-08-07T21:37:53.774Z,94539.77
2018-08-07T21:40:22.745Z,94537.50
2018-08-07T21:42:52.121Z,94535.00
2018-08-07T21:45:20.491Z,94528.64
2018-08-07T21:47:48.888Z,94524.64
2018-08-07T21:50:18.823Z,94531.88
2018-08-07T21:52:47.086Z,94534.19
2018-08-07T21:55:16.588Z,94518.55
2018-08-07T21:57:44.904Z,94516.98
2018-08-07T22:00:16.935Z,94507.05
2018-08-07T22:02:45.611Z,94505.52
2018-08-07T22:05:13.976Z,94489.37
2018-08-07T22:07:42.388Z,94492.08
2018-08-07T22:10:15.751Z,94486.98
2018-08-07T22:12:44.432Z,94479.26
2018-08-07T22:15:13.781Z,94479.75
2018-08-07T22:17:42.114Z,94478.04
2018-08-07T22:20:11.111Z,94481.48
2018-08-07T22:22:39.528Z,94482.83
2018-08-07T22:25:08.583Z,94477.89
2018-08-07T22:27:36.992Z,94479.42
2018-08-07T22:30:07.098Z,94469.03
2018-08-07T22:32:35.547Z,94475.20
2018-08-07T22:35:03.919Z,94474.30
2018-08-07T22:37:32.330Z,94477.18
2018-08-07T22:40:00.938Z,94468.13
2018-08-07T22:42:29.442Z,94457.35
2018-08-07T22:44:57.826Z,94458.88
2018-08-07T22:47:26.196Z,94449.76
2018-08-07T22:49:54.604Z,94448.88
2018-08-07T22:52:22.984Z,94439.55
2018-08-07T22:54:51.342Z,94429.75
2018-08-07T22:57:19.747Z,94424.05
2018-08-07T22:59:48.142Z,94424.11
2018-08-07T23:02:16.503Z,94432.13
2018-08-07T23:04:44.927Z,94429.45
2018-08-07T23:07:13.388Z,94436.44
2018-08-07T23:09:41.818Z,94437.80
2018-08-07T23:12:10.197Z,94436.61
2018-08-07T23:14:38.564Z,94442.55
2018-08-07T23:17:06.929Z,94437.24
2018-08-07T23:19:35.563Z,94434.02
2018-08-07T23:22:03.978Z,94421.84
2018-08-07T23:24:32.507Z,94414.61
2018-08-07T23:27:00.911Z,94407.97
2018-08-07T23:29:29.345Z,94406.99
2018-08-07T23:31:57.754Z,94401.27
2018-08-07T23:34:26.147Z,94405.20
2018-08-07T23:36:54.531Z,94393.04
2018-08-07T23:39:22.942Z,94407.38
2018-08-07T23:41:51.247Z,94396.34
2018-08-07T23:44:19.608Z,94398.39
2018-08-07T23:46:47.871Z,94394.78
2018-08-07T23:49:16.145Z,94395.19
2018-08-07T23:51:44.408Z,94399.30
2018-08-07T23:54:12.682Z,94399.03
2018-08-07T23:56:40.934Z,94396.37
2018-08-07T23:59:09.186Z,94386.16
